Aviation Digital Data Service (ADDS)

Output produced by METARs form (0242 UTC 24 July 2017)
found at http://www.aviationweather.gov/adds/metars/
 
TAF TNCA 232200Z 2400/2424 08019KT 9999 FEW018 
     TEMPO 2404/2412 BKN014